Lopez Island, WA (98261)

5:50 PM PDT on August 20, 2014 (GMT -0700)
Lopez Island, WA | Change Station
CLOSE
Current Station
Personal Weather Station
Location: Lopez Island, WA
Elevation: 148 ft
Nearby Weather Stations

Elev 148 ft 48.54 °N, 122.91 °W | Updated 48 seconds ago

Clear
Clear
69.0 °F
Feels Like 69.0 °F
N
3.5
Wind Variable Wind from SSE
Gusts 3.5 mph

Today
High -- | Low -- °F
--% Chance of Precip.
Yesterday
High -- | Low -- °F
Precip. -- in
6:12 AM 8:16 PM
Waning Crescent, 18% visible
Pressure 29.97 in
Visibility 10.0 miles
Clouds Clear
Dew Point 56 °F
Humidity 63%
Rainfall 0.00 in
Snow Depth Not available.
UV 3 out of 12
Pollen 2.70 out of 12
Air Quality Not available.
Flu Activity Not available.
METAR KFHR 202353Z AUTO 12004KT 10SM CLR 19/12 A2997 RMK AO2 SLP149 T01940122 10211 20167 56004

More Conditions Fewer Conditions

Pressure 29.97 in
Visibility 10.0 miles
Clouds Clear
Dew Point 56 °F
Humidity 63%
Rainfall 0.00 in
Snow Depth Not available.
UV 3 out of 12
Pollen 2.70 out of 12
Air Quality Not available.
Flu Activity Not available.
METAR KFHR 202353Z AUTO 12004KT 10SM CLR 19/12 A2997 RMK AO2 SLP149 T01940122 10211 20167 56004

More Conditions Fewer Conditions

10-Day Weather Forecast

Almanac

Astronomy

Aug. 20, 2014 Rise Set
Actual Time 6:12 AM PDT 8:16 PM PDT
Civil Twilight 5:38 AM PDT 8:49 PM PDT
Nautical Twilight 4:56 AM PDT 9:31 PM PDT
Astronomical Twilight 4:09 AM PDT 10:18 PM PDT
Moon 1:47 AM PDT (8/20) 5:13 PM PDT (8/20)
Length of Visible Light 15h 11m
Length of Day
14h 04m
Tomorrow will be 3m 16s shorter.
Waning Crescent, 18% of the Moon is Illuminated
Today
Waning Crescent
Aug 25
New
Sep 2
First Quarter
Sep 8
Full
Sep 15
Last Quarter

Today's Extremes

State Highs State Lows

Community

WunderPhotos

Upload Photos

1,745,823 photos uploaded!

WunderBlogs® & News

Nearby

Snow Depth

Station Depth Elevation
Dungeness 5 in 4100 ft
Alpine Meadows 0 in 3500 ft
Thunder Basin 1 in 4200 ft
Park Creek Ridge 0 in 4600 ft
Olallie Meadows 2 in 3700 ft

Earthquake Activity

City Distance Mag. Time & Date
No recent earthquake activity has been reported nearby.
Minimum magnitude displayed is 2.5.

Coastal Water Temperatures

Place Temperature
Port Townsend, WA 55.9 °F
Friday Harbor, WA 54.0 °F
Port Angeles, WA 53.1 °F

Nearby Weather Stations